sensor_id;sensor_type;location;lat;lon;timestamp;P1;durP1;ratioP1;P2;durP2;ratioP2
37455;SDS011;23316;50.718;7.328;2022-11-15T00:01:06;11.52;;;7.28;;
37455;SDS011;23316;50.718;7.328;2022-11-15T00:03:34;15.32;;;7.55;;
37455;SDS011;23316;50.718;7.328;2022-11-15T00:06:01;11.15;;;7.03;;
37455;SDS011;23316;50.718;7.328;2022-11-15T00:08:30;11.70;;;6.53;;
37455;SDS011;23316;50.718;7.328;2022-11-15T00:11:00;12.60;;;7.60;;
37455;SDS011;23316;50.718;7.328;2022-11-15T00:13:29;13.60;;;6.80;;
37455;SDS011;23316;50.718;7.328;2022-11-15T00:15:56;12.50;;;6.50;;
37455;SDS011;23316;50.718;7.328;2022-11-15T00:18:24;9.70;;;6.65;;
37455;SDS011;23316;50.718;7.328;2022-11-15T00:20:52;13.32;;;7.00;;
37455;SDS011;23316;50.718;7.328;2022-11-15T00:23:19;12.93;;;7.10;;
37455;SDS011;23316;50.718;7.328;2022-11-15T00:25:46;11.65;;;7.05;;
37455;SDS011;23316;50.718;7.328;2022-11-15T00:28:15;10.77;;;6.32;;
37455;SDS011;23316;50.718;7.328;2022-11-15T00:30:42;14.77;;;6.82;;
37455;SDS011;23316;50.718;7.328;2022-11-15T00:33:09;11.52;;;6.93;;
37455;SDS011;23316;50.718;7.328;2022-11-15T00:35:36;11.18;;;6.32;;
37455;SDS011;23316;50.718;7.328;2022-11-15T00:38:03;8.60;;;6.13;;
37455;SDS011;23316;50.718;7.328;2022-11-15T00:40:31;10.05;;;6.28;;
37455;SDS011;23316;50.718;7.328;2022-11-15T00:42:58;11.57;;;6.75;;
37455;SDS011;23316;50.718;7.328;2022-11-15T00:45:27;9.40;;;6.60;;
37455;SDS011;23316;50.718;7.328;2022-11-15T00:47:54;9.07;;;5.95;;
37455;SDS011;23316;50.718;7.328;2022-11-15T00:50:21;12.05;;;6.55;;
37455;SDS011;23316;50.718;7.328;2022-11-15T00:52:48;9.10;;;6.18;;
37455;SDS011;23316;50.718;7.328;2022-11-15T00:55:16;8.70;;;6.15;;
37455;SDS011;23316;50.718;7.328;2022-11-15T00:57:44;11.98;;;6.60;;
37455;SDS011;23316;50.718;7.328;2022-11-15T01:00:12;9.05;;;6.13;;
37455;SDS011;23316;50.718;7.328;2022-11-15T01:02:41;9.75;;;5.82;;
37455;SDS011;23316;50.718;7.328;2022-11-15T01:05:09;10.82;;;6.03;;
37455;SDS011;23316;50.718;7.328;2022-11-15T01:07:36;11.30;;;6.68;;
37455;SDS011;23316;50.718;7.328;2022-11-15T01:10:03;11.18;;;6.60;;
37455;SDS011;23316;50.718;7.328;2022-11-15T01:12:31;10.35;;;6.00;;
37455;SDS011;23316;50.718;7.328;2022-11-15T01:14:59;10.10;;;6.05;;
37455;SDS011;23316;50.718;7.328;2022-11-15T01:17:26;7.57;;;4.63;;
37455;SDS011;23316;50.718;7.328;2022-11-15T01:19:55;12.73;;;5.68;;
37455;SDS011;23316;50.718;7.328;2022-11-15T01:22:22;7.88;;;5.35;;
37455;SDS011;23316;50.718;7.328;2022-11-15T01:24:49;10.63;;;5.95;;
37455;SDS011;23316;50.718;7.328;2022-11-15T01:27:16;10.25;;;5.38;;
37455;SDS011;23316;50.718;7.328;2022-11-15T01:29:44;9.45;;;5.38;;
37455;SDS011;23316;50.718;7.328;2022-11-15T01:32:11;7.65;;;5.22;;
37455;SDS011;23316;50.718;7.328;2022-11-15T01:34:38;10.63;;;5.30;;
37455;SDS011;23316;50.718;7.328;2022-11-15T01:37:07;8.98;;;5.65;;
37455;SDS011;23316;50.718;7.328;2022-11-15T01:39:35;10.55;;;5.72;;
37455;SDS011;23316;50.718;7.328;2022-11-15T01:42:02;10.70;;;5.05;;
37455;SDS011;23316;50.718;7.328;2022-11-15T01:44:40;9.85;;;5.55;;
37455;SDS011;23316;50.718;7.328;2022-11-15T01:47:11;9.55;;;5.70;;
37455;SDS011;23316;50.718;7.328;2022-11-15T01:49:41;11.38;;;6.55;;
37455;SDS011;23316;50.718;7.328;2022-11-15T01:52:18;10.55;;;5.07;;
37455;SDS011;23316;50.718;7.328;2022-11-15T01:54:48;8.82;;;5.43;;
37455;SDS011;23316;50.718;7.328;2022-11-15T01:57:19;8.80;;;5.00;;
37455;SDS011;23316;50.718;7.328;2022-11-15T01:59:47;7.75;;;5.38;;
37455;SDS011;23316;50.718;7.328;2022-11-15T02:02:14;9.77;;;6.38;;
37455;SDS011;23316;50.718;7.328;2022-11-15T02:04:43;9.40;;;5.68;;
37455;SDS011;23316;50.718;7.328;2022-11-15T02:07:13;8.35;;;5.05;;
37455;SDS011;23316;50.718;7.328;2022-11-15T02:09:44;10.02;;;5.60;;
37455;SDS011;23316;50.718;7.328;2022-11-15T02:12:13;8.40;;;5.35;;
37455;SDS011;23316;50.718;7.328;2022-11-15T02:14:44;7.43;;;5.13;;
37455;SDS011;23316;50.718;7.328;2022-11-15T02:17:19;9.70;;;5.35;;
37455;SDS011;23316;50.718;7.328;2022-11-15T02:23:00;8.20;;;5.22;;
37455;SDS011;23316;50.718;7.328;2022-11-15T02:25:47;9.02;;;5.05;;
37455;SDS011;23316;50.718;7.328;2022-11-15T02:28:37;12.90;;;5.45;;
37455;SDS011;23316;50.718;7.328;2022-11-15T02:31:13;9.77;;;4.93;;
37455;SDS011;23316;50.718;7.328;2022-11-15T02:33:47;8.77;;;5.35;;
37455;SDS011;23316;50.718;7.328;2022-11-15T02:36:29;10.32;;;6.10;;
37455;SDS011;23316;50.718;7.328;2022-11-15T02:39:07;9.38;;;5.30;;
37455;SDS011;23316;50.718;7.328;2022-11-15T02:41:42;8.35;;;6.07;;
37455;SDS011;23316;50.718;7.328;2022-11-15T02:44:16;9.77;;;5.57;;
37455;SDS011;23316;50.718;7.328;2022-11-15T02:46:49;10.07;;;5.93;;
37455;SDS011;23316;50.718;7.328;2022-11-15T02:49:38;10.75;;;5.75;;
37455;SDS011;23316;50.718;7.328;2022-11-15T02:52:07;7.82;;;5.15;;
37455;SDS011;23316;50.718;7.328;2022-11-15T02:54:34;11.57;;;6.03;;
37455;SDS011;23316;50.718;7.328;2022-11-15T02:57:03;6.13;;;4.97;;
37455;SDS011;23316;50.718;7.328;2022-11-15T03:02:37;10.15;;;4.95;;
37455;SDS011;23316;50.718;7.328;2022-11-15T03:05:24;8.73;;;5.15;;
37455;SDS011;23316;50.718;7.328;2022-11-15T03:07:59;8.13;;;5.50;;
37455;SDS011;23316;50.718;7.328;2022-11-15T03:10:32;11.20;;;5.97;;
37455;SDS011;23316;50.718;7.328;2022-11-15T03:13:11;7.43;;;5.05;;
37455;SDS011;23316;50.718;7.328;2022-11-15T03:15:49;6.70;;;5.57;;
37455;SDS011;23316;50.718;7.328;2022-11-15T03:18:25;9.48;;;5.85;;
37455;SDS011;23316;50.718;7.328;2022-11-15T03:20:56;6.82;;;5.63;;
37455;SDS011;23316;50.718;7.328;2022-11-15T03:23:25;8.98;;;5.72;;
37455;SDS011;23316;50.718;7.328;2022-11-15T03:25:55;9.48;;;6.07;;
37455;SDS011;23316;50.718;7.328;2022-11-15T03:28:25;7.43;;;5.15;;
37455;SDS011;23316;50.718;7.328;2022-11-15T03:30:58;6.65;;;5.13;;
37455;SDS011;23316;50.718;7.328;2022-11-15T03:33:51;7.03;;;4.97;;
37455;SDS011;23316;50.718;7.328;2022-11-15T03:36:22;9.38;;;5.93;;
37455;SDS011;23316;50.718;7.328;2022-11-15T03:38:51;9.55;;;5.72;;
37455;SDS011;23316;50.718;7.328;2022-11-15T03:41:23;7.10;;;4.88;;
37455;SDS011;23316;50.718;7.328;2022-11-15T03:43:55;9.57;;;6.13;;
37455;SDS011;23316;50.718;7.328;2022-11-15T03:46:27;11.02;;;5.90;;
37455;SDS011;23316;50.718;7.328;2022-11-15T03:49:02;8.50;;;6.00;;
37455;SDS011;23316;50.718;7.328;2022-11-15T03:51:34;8.75;;;5.85;;
37455;SDS011;23316;50.718;7.328;2022-11-15T03:54:02;8.50;;;5.60;;
37455;SDS011;23316;50.718;7.328;2022-11-15T03:56:30;10.77;;;5.90;;
37455;SDS011;23316;50.718;7.328;2022-11-15T03:58:58;8.88;;;5.82;;
37455;SDS011;23316;50.718;7.328;2022-11-15T04:01:25;8.63;;;5.72;;
37455;SDS011;23316;50.718;7.328;2022-11-15T04:03:52;8.77;;;5.88;;
37455;SDS011;23316;50.718;7.328;2022-11-15T04:06:21;6.68;;;4.78;;
37455;SDS011;23316;50.718;7.328;2022-11-15T04:08:48;6.55;;;4.15;;
37455;SDS011;23316;50.718;7.328;2022-11-15T04:11:15;7.22;;;4.88;;
37455;SDS011;23316;50.718;7.328;2022-11-15T04:13:42;8.02;;;4.55;;
37455;SDS011;23316;50.718;7.328;2022-11-15T04:16:09;5.53;;;4.43;;
37455;SDS011;23316;50.718;7.328;2022-11-15T04:18:37;5.85;;;4.18;;
37455;SDS011;23316;50.718;7.328;2022-11-15T04:21:04;7.53;;;4.38;;
37455;SDS011;23316;50.718;7.328;2022-11-15T04:23:50;6.90;;;4.30;;
37455;SDS011;23316;50.718;7.328;2022-11-15T04:26:35;4.35;;;3.72;;
37455;SDS011;23316;50.718;7.328;2022-11-15T04:29:02;4.75;;;3.88;;
37455;SDS011;23316;50.718;7.328;2022-11-15T04:31:47;7.20;;;4.13;;
37455;SDS011;23316;50.718;7.328;2022-11-15T04:34:14;6.75;;;3.53;;
37455;SDS011;23316;50.718;7.328;2022-11-15T04:36:42;6.15;;;4.18;;
37455;SDS011;23316;50.718;7.328;2022-11-15T04:39:28;6.25;;;4.40;;
37455;SDS011;23316;50.718;7.328;2022-11-15T04:41:55;7.13;;;4.22;;
37455;SDS011;23316;50.718;7.328;2022-11-15T04:44:22;4.85;;;3.92;;
37455;SDS011;23316;50.718;7.328;2022-11-15T04:46:50;5.57;;;4.32;;
37455;SDS011;23316;50.718;7.328;2022-11-15T04:49:17;5.70;;;4.30;;
37455;SDS011;23316;50.718;7.328;2022-11-15T04:51:44;7.25;;;4.35;;
37455;SDS011;23316;50.718;7.328;2022-11-15T04:54:11;7.63;;;4.13;;
37455;SDS011;23316;50.718;7.328;2022-11-15T04:56:41;4.68;;;3.70;;
37455;SDS011;23316;50.718;7.328;2022-11-15T04:59:08;7.63;;;4.15;;
37455;SDS011;23316;50.718;7.328;2022-11-15T05:01:36;7.32;;;3.92;;
37455;SDS011;23316;50.718;7.328;2022-11-15T05:04:03;8.25;;;3.95;;
37455;SDS011;23316;50.718;7.328;2022-11-15T05:06:45;6.43;;;4.20;;
37455;SDS011;23316;50.718;7.328;2022-11-15T05:09:13;6.38;;;4.13;;
37455;SDS011;23316;50.718;7.328;2022-11-15T05:11:42;6.63;;;4.00;;
37455;SDS011;23316;50.718;7.328;2022-11-15T05:14:09;6.07;;;4.13;;
37455;SDS011;23316;50.718;7.328;2022-11-15T05:16:36;3.97;;;3.15;;
37455;SDS011;23316;50.718;7.328;2022-11-15T05:19:04;6.10;;;3.15;;
37455;SDS011;23316;50.718;7.328;2022-11-15T05:21:32;8.77;;;3.83;;
37455;SDS011;23316;50.718;7.328;2022-11-15T05:24:00;7.60;;;3.95;;
37455;SDS011;23316;50.718;7.328;2022-11-15T05:26:28;5.70;;;3.58;;
37455;SDS011;23316;50.718;7.328;2022-11-15T05:28:57;4.70;;;3.60;;
37455;SDS011;23316;50.718;7.328;2022-11-15T05:31:25;4.30;;;3.22;;
37455;SDS011;23316;50.718;7.328;2022-11-15T05:33:54;4.90;;;3.58;;
37455;SDS011;23316;50.718;7.328;2022-11-15T05:36:25;42.85;;;17.83;;
37455;SDS011;23316;50.718;7.328;2022-11-15T05:38:57;14.10;;;7.57;;
37455;SDS011;23316;50.718;7.328;2022-11-15T05:41:25;8.10;;;4.40;;
37455;SDS011;23316;50.718;7.328;2022-11-15T05:43:59;6.00;;;3.50;;
37455;SDS011;23316;50.718;7.328;2022-11-15T05:46:28;4.45;;;3.30;;
37455;SDS011;23316;50.718;7.328;2022-11-15T05:48:56;3.67;;;3.13;;
37455;SDS011;23316;50.718;7.328;2022-11-15T05:51:24;3.80;;;2.47;;
37455;SDS011;23316;50.718;7.328;2022-11-15T05:53:53;6.28;;;2.70;;
37455;SDS011;23316;50.718;7.328;2022-11-15T05:56:24;3.55;;;2.60;;
37455;SDS011;23316;50.718;7.328;2022-11-15T05:58:52;4.97;;;2.70;;
37455;SDS011;23316;50.718;7.328;2022-11-15T06:01:22;4.35;;;2.33;;
37455;SDS011;23316;50.718;7.328;2022-11-15T06:03:51;5.00;;;2.40;;
37455;SDS011;23316;50.718;7.328;2022-11-15T06:06:18;24.52;;;11.68;;
37455;SDS011;23316;50.718;7.328;2022-11-15T06:08:45;9.90;;;4.90;;
37455;SDS011;23316;50.718;7.328;2022-11-15T06:11:13;4.53;;;3.00;;
37455;SDS011;23316;50.718;7.328;2022-11-15T06:13:40;5.35;;;2.70;;
37455;SDS011;23316;50.718;7.328;2022-11-15T06:16:08;3.17;;;2.38;;
37455;SDS011;23316;50.718;7.328;2022-11-15T06:18:36;5.55;;;2.20;;
37455;SDS011;23316;50.718;7.328;2022-11-15T06:21:04;4.03;;;2.40;;
37455;SDS011;23316;50.718;7.328;2022-11-15T06:23:33;4.43;;;2.47;;
37455;SDS011;23316;50.718;7.328;2022-11-15T06:26:01;3.85;;;2.17;;
37455;SDS011;23316;50.718;7.328;2022-11-15T06:28:29;3.58;;;2.22;;
37455;SDS011;23316;50.718;7.328;2022-11-15T06:31:01;3.63;;;1.98;;
37455;SDS011;23316;50.718;7.328;2022-11-15T06:33:29;3.42;;;2.25;;
37455;SDS011;23316;50.718;7.328;2022-11-15T06:36:00;2.63;;;1.98;;
37455;SDS011;23316;50.718;7.328;2022-11-15T06:38:28;3.33;;;1.80;;
37455;SDS011;23316;50.718;7.328;2022-11-15T06:40:55;2.45;;;1.73;;
37455;SDS011;23316;50.718;7.328;2022-11-15T06:43:28;3.05;;;1.85;;
37455;SDS011;23316;50.718;7.328;2022-11-15T06:45:57;4.05;;;1.73;;
37455;SDS011;23316;50.718;7.328;2022-11-15T06:48:24;3.05;;;1.50;;
37455;SDS011;23316;50.718;7.328;2022-11-15T06:50:51;2.47;;;1.55;;
37455;SDS011;23316;50.718;7.328;2022-11-15T06:53:21;1.75;;;1.23;;
37455;SDS011;23316;50.718;7.328;2022-11-15T06:55:49;3.08;;;1.35;;
37455;SDS011;23316;50.718;7.328;2022-11-15T06:58:16;3.17;;;1.27;;
37455;SDS011;23316;50.718;7.328;2022-11-15T07:00:43;2.85;;;1.58;;
37455;SDS011;23316;50.718;7.328;2022-11-15T07:03:11;5.18;;;1.52;;
37455;SDS011;23316;50.718;7.328;2022-11-15T07:05:38;2.03;;;1.20;;
37455;SDS011;23316;50.718;7.328;2022-11-15T07:08:05;1.60;;;1.02;;
37455;SDS011;23316;50.718;7.328;2022-11-15T07:10:34;3.03;;;1.40;;
37455;SDS011;23316;50.718;7.328;2022-11-15T07:13:01;1.95;;;1.50;;
37455;SDS011;23316;50.718;7.328;2022-11-15T07:15:28;2.58;;;1.25;;
37455;SDS011;23316;50.718;7.328;2022-11-15T07:17:55;4.22;;;1.23;;
37455;SDS011;23316;50.718;7.328;2022-11-15T07:20:26;2.53;;;1.05;;
37455;SDS011;23316;50.718;7.328;2022-11-15T07:22:58;5.55;;;1.42;;
37455;SDS011;23316;50.718;7.328;2022-11-15T07:25:26;3.00;;;1.58;;
37455;SDS011;23316;50.718;7.328;2022-11-15T07:27:55;11.45;;;3.90;;
37455;SDS011;23316;50.718;7.328;2022-11-15T07:30:23;5.53;;;2.90;;
37455;SDS011;23316;50.718;7.328;2022-11-15T07:32:52;3.50;;;2.60;;
37455;SDS011;23316;50.718;7.328;2022-11-15T07:35:20;2.38;;;1.60;;
37455;SDS011;23316;50.718;7.328;2022-11-15T07:37:52;3.00;;;1.80;;
37455;SDS011;23316;50.718;7.328;2022-11-15T07:40:21;3.55;;;2.10;;
37455;SDS011;23316;50.718;7.328;2022-11-15T07:42:48;2.25;;;1.70;;
37455;SDS011;23316;50.718;7.328;2022-11-15T07:45:23;2.67;;;1.92;;
37455;SDS011;23316;50.718;7.328;2022-11-15T07:47:52;5.70;;;1.90;;
37455;SDS011;23316;50.718;7.328;2022-11-15T07:50:21;3.38;;;1.73;;
37455;SDS011;23316;50.718;7.328;2022-11-15T07:52:52;2.58;;;1.65;;
37455;SDS011;23316;50.718;7.328;2022-11-15T07:55:20;6.15;;;2.20;;
37455;SDS011;23316;50.718;7.328;2022-11-15T07:57:48;13.93;;;6.55;;
37455;SDS011;23316;50.718;7.328;2022-11-15T08:00:15;9.05;;;3.80;;
37455;SDS011;23316;50.718;7.328;2022-11-15T08:02:45;3.83;;;2.47;;
37455;SDS011;23316;50.718;7.328;2022-11-15T08:05:12;4.88;;;2.10;;
37455;SDS011;23316;50.718;7.328;2022-11-15T08:07:39;4.82;;;1.80;;
37455;SDS011;23316;50.718;7.328;2022-11-15T08:10:08;3.08;;;1.80;;
37455;SDS011;23316;50.718;7.328;2022-11-15T08:12:37;5.25;;;2.30;;
37455;SDS011;23316;50.718;7.328;2022-11-15T08:15:05;3.28;;;1.73;;
37455;SDS011;23316;50.718;7.328;2022-11-15T08:17:32;5.43;;;2.15;;
37455;SDS011;23316;50.718;7.328;2022-11-15T08:20:01;4.88;;;2.38;;
37455;SDS011;23316;50.718;7.328;2022-11-15T08:22:29;2.72;;;1.90;;
37455;SDS011;23316;50.718;7.328;2022-11-15T08:24:56;3.05;;;1.73;;
37455;SDS011;23316;50.718;7.328;2022-11-15T08:27:25;4.40;;;1.75;;
37455;SDS011;23316;50.718;7.328;2022-11-15T08:29:52;2.55;;;1.48;;
37455;SDS011;23316;50.718;7.328;2022-11-15T08:32:19;6.93;;;1.90;;
37455;SDS011;23316;50.718;7.328;2022-11-15T08:34:46;2.78;;;1.55;;
37455;SDS011;23316;50.718;7.328;2022-11-15T08:37:15;3.58;;;1.90;;
37455;SDS011;23316;50.718;7.328;2022-11-15T08:39:42;3.65;;;1.58;;
37455;SDS011;23316;50.718;7.328;2022-11-15T08:42:09;4.07;;;1.80;;
37455;SDS011;23316;50.718;7.328;2022-11-15T08:44:37;5.28;;;1.65;;
37455;SDS011;23316;50.718;7.328;2022-11-15T08:47:04;2.92;;;1.45;;
37455;SDS011;23316;50.718;7.328;2022-11-15T08:49:31;2.17;;;1.35;;
37455;SDS011;23316;50.718;7.328;2022-11-15T08:51:58;2.55;;;1.30;;
37455;SDS011;23316;50.718;7.328;2022-11-15T08:54:27;3.42;;;1.20;;
37455;SDS011;23316;50.718;7.328;2022-11-15T08:56:54;8.82;;;1.65;;
37455;SDS011;23316;50.718;7.328;2022-11-15T08:59:22;2.95;;;1.30;;
37455;SDS011;23316;50.718;7.328;2022-11-15T09:01:49;3.50;;;1.42;;
37455;SDS011;23316;50.718;7.328;2022-11-15T09:04:16;2.20;;;1.40;;
37455;SDS011;23316;50.718;7.328;2022-11-15T09:06:43;2.72;;;1.20;;
37455;SDS011;23316;50.718;7.328;2022-11-15T09:09:11;2.05;;;1.10;;
37455;SDS011;23316;50.718;7.328;2022-11-15T09:11:39;2.03;;;1.00;;
37455;SDS011;23316;50.718;7.328;2022-11-15T09:14:06;3.83;;;1.23;;
37455;SDS011;23316;50.718;7.328;2022-11-15T09:16:34;2.85;;;1.30;;
37455;SDS011;23316;50.718;7.328;2022-11-15T09:19:01;2.28;;;1.20;;
37455;SDS011;23316;50.718;7.328;2022-11-15T09:21:28;1.83;;;1.10;;
37455;SDS011;23316;50.718;7.328;2022-11-15T09:23:56;1.65;;;1.02;;
37455;SDS011;23316;50.718;7.328;2022-11-15T09:26:24;3.05;;;1.35;;
37455;SDS011;23316;50.718;7.328;2022-11-15T09:28:52;3.25;;;1.10;;
37455;SDS011;23316;50.718;7.328;2022-11-15T09:31:20;1.88;;;1.17;;
37455;SDS011;23316;50.718;7.328;2022-11-15T09:33:47;3.20;;;1.30;;
37455;SDS011;23316;50.718;7.328;2022-11-15T09:36:14;2.90;;;0.98;;
37455;SDS011;23316;50.718;7.328;2022-11-15T09:38:42;3.63;;;1.02;;
37455;SDS011;23316;50.718;7.328;2022-11-15T09:44:24;5.28;;;0.95;;
37455;SDS011;23316;50.718;7.328;2022-11-15T09:47:15;4.13;;;1.27;;
37455;SDS011;23316;50.718;7.328;2022-11-15T09:50:06;2.10;;;1.27;;
37455;SDS011;23316;50.718;7.328;2022-11-15T09:52:36;1.67;;;0.80;;
37455;SDS011;23316;50.718;7.328;2022-11-15T09:55:07;2.45;;;1.13;;
37455;SDS011;23316;50.718;7.328;2022-11-15T09:57:38;2.10;;;0.90;;
37455;SDS011;23316;50.718;7.328;2022-11-15T10:00:12;2.70;;;0.82;;
37455;SDS011;23316;50.718;7.328;2022-11-15T10:02:50;3.42;;;1.10;;
37455;SDS011;23316;50.718;7.328;2022-11-15T10:05:37;2.28;;;1.00;;
37455;SDS011;23316;50.718;7.328;2022-11-15T10:08:06;2.88;;;0.70;;
37455;SDS011;23316;50.718;7.328;2022-11-15T10:10:43;2.22;;;0.80;;
37455;SDS011;23316;50.718;7.328;2022-11-15T10:13:13;6.82;;;1.00;;
37455;SDS011;23316;50.718;7.328;2022-11-15T10:15:46;4.35;;;0.95;;
37455;SDS011;23316;50.718;7.328;2022-11-15T10:18:15;2.22;;;0.70;;
37455;SDS011;23316;50.718;7.328;2022-11-15T10:20:47;2.13;;;0.82;;
37455;SDS011;23316;50.718;7.328;2022-11-15T10:23:16;8.57;;;2.10;;
37455;SDS011;23316;50.718;7.328;2022-11-15T10:25:45;1.83;;;0.70;;
37455;SDS011;23316;50.718;7.328;2022-11-15T10:28:14;2.55;;;0.63;;
37455;SDS011;23316;50.718;7.328;2022-11-15T10:30:43;2.50;;;0.82;;
37455;SDS011;23316;50.718;7.328;2022-11-15T10:33:18;7.72;;;0.82;;
37455;SDS011;23316;50.718;7.328;2022-11-15T10:38:54;5.38;;;1.27;;
37455;SDS011;23316;50.718;7.328;2022-11-15T10:44:18;6.15;;;1.00;;
37455;SDS011;23316;50.718;7.328;2022-11-15T10:47:05;3.65;;;0.80;;
37455;SDS011;23316;50.718;7.328;2022-11-15T10:49:55;2.65;;;1.00;;
37455;SDS011;23316;50.718;7.328;2022-11-15T10:52:24;7.70;;;1.00;;
37455;SDS011;23316;50.718;7.328;2022-11-15T10:54:53;2.65;;;0.90;;
37455;SDS011;23316;50.718;7.328;2022-11-15T10:57:23;1.80;;;0.63;;
37455;SDS011;23316;50.718;7.328;2022-11-15T10:59:53;5.40;;;0.75;;
37455;SDS011;23316;50.718;7.328;2022-11-15T11:02:31;1.40;;;0.68;;
37455;SDS011;23316;50.718;7.328;2022-11-15T11:05:01;5.05;;;0.80;;
37455;SDS011;23316;50.718;7.328;2022-11-15T11:07:29;3.63;;;0.85;;
37455;SDS011;23316;50.718;7.328;2022-11-15T11:09:59;3.55;;;0.60;;
37455;SDS011;23316;50.718;7.328;2022-11-15T11:12:30;4.95;;;0.73;;
37455;SDS011;23316;50.718;7.328;2022-11-15T11:14:59;4.03;;;0.80;;
37455;SDS011;23316;50.718;7.328;2022-11-15T11:17:32;5.13;;;1.10;;
37455;SDS011;23316;50.718;7.328;2022-11-15T11:20:18;1.13;;;0.50;;
37455;SDS011;23316;50.718;7.328;2022-11-15T11:22:59;1.52;;;0.82;;
37455;SDS011;23316;50.718;7.328;2022-11-15T11:25:33;2.80;;;0.90;;
37455;SDS011;23316;50.718;7.328;2022-11-15T11:28:05;3.55;;;1.00;;
37455;SDS011;23316;50.718;7.328;2022-11-15T11:30:47;1.67;;;0.57;;
37455;SDS011;23316;50.718;7.328;2022-11-15T11:33:25;3.58;;;0.73;;
37455;SDS011;23316;50.718;7.328;2022-11-15T11:36:02;3.08;;;0.80;;
37455;SDS011;23316;50.718;7.328;2022-11-15T11:38:40;3.05;;;0.85;;
37455;SDS011;23316;50.718;7.328;2022-11-15T11:41:20;2.92;;;1.00;;
37455;SDS011;23316;50.718;7.328;2022-11-15T11:44:00;6.68;;;1.08;;
37455;SDS011;23316;50.718;7.328;2022-11-15T11:46:41;1.70;;;1.15;;
37455;SDS011;23316;50.718;7.328;2022-11-15T11:49:18;4.57;;;0.95;;
37455;SDS011;23316;50.718;7.328;2022-11-15T11:51:50;3.05;;;1.00;;
37455;SDS011;23316;50.718;7.328;2022-11-15T11:54:22;8.23;;;1.57;;
37455;SDS011;23316;50.718;7.328;2022-11-15T11:56:59;1.65;;;1.05;;
37455;SDS011;23316;50.718;7.328;2022-11-15T11:59:32;3.65;;;1.27;;
37455;SDS011;23316;50.718;7.328;2022-11-15T12:02:10;9.07;;;1.52;;
37455;SDS011;23316;50.718;7.328;2022-11-15T12:04:43;5.43;;;1.30;;
37455;SDS011;23316;50.718;7.328;2022-11-15T12:07:15;4.90;;;1.45;;
37455;SDS011;23316;50.718;7.328;2022-11-15T12:09:48;3.90;;;1.90;;
37455;SDS011;23316;50.718;7.328;2022-11-15T12:12:25;2.63;;;1.70;;
37455;SDS011;23316;50.718;7.328;2022-11-15T12:15:00;5.03;;;1.60;;
37455;SDS011;23316;50.718;7.328;2022-11-15T12:17:29;3.78;;;1.70;;
37455;SDS011;23316;50.718;7.328;2022-11-15T12:20:00;2.00;;;1.52;;
37455;SDS011;23316;50.718;7.328;2022-11-15T12:22:33;2.08;;;1.50;;
37455;SDS011;23316;50.718;7.328;2022-11-15T12:25:07;6.05;;;1.70;;
37455;SDS011;23316;50.718;7.328;2022-11-15T12:27:43;3.40;;;1.58;;
37455;SDS011;23316;50.718;7.328;2022-11-15T12:30:15;4.32;;;1.58;;
37455;SDS011;23316;50.718;7.328;2022-11-15T12:35:30;2.45;;;1.20;;
37455;SDS011;23316;50.718;7.328;2022-11-15T12:38:01;6.57;;;1.80;;
37455;SDS011;23316;50.718;7.328;2022-11-15T12:40:29;5.57;;;1.45;;
37455;SDS011;23316;50.718;7.328;2022-11-15T12:43:02;7.88;;;2.00;;
37455;SDS011;23316;50.718;7.328;2022-11-15T12:45:38;7.95;;;1.58;;
37455;SDS011;23316;50.718;7.328;2022-11-15T12:54:52;2.65;;;1.30;;
37455;SDS011;23316;50.718;7.328;2022-11-15T12:57:34;4.00;;;1.83;;
37455;SDS011;23316;50.718;7.328;2022-11-15T13:03:17;6.00;;;1.63;;
37455;SDS011;23316;50.718;7.328;2022-11-15T13:05:51;2.53;;;1.58;;
37455;SDS011;23316;50.718;7.328;2022-11-15T13:17:24;2.97;;;1.40;;
37455;SDS011;23316;50.718;7.328;2022-11-15T13:20:00;2.08;;;1.40;;
37455;SDS011;23316;50.718;7.328;2022-11-15T13:22:51;4.30;;;1.70;;
37455;SDS011;23316;50.718;7.328;2022-11-15T13:25:27;5.37;;;2.27;;
37455;SDS011;23316;50.718;7.328;2022-11-15T13:28:20;3.90;;;1.83;;
37455;SDS011;23316;50.718;7.328;2022-11-15T13:30:56;3.20;;;1.60;;
37455;SDS011;23316;50.718;7.328;2022-11-15T13:33:27;3.47;;;1.50;;
37455;SDS011;23316;50.718;7.328;2022-11-15T13:35:58;3.97;;;1.55;;
37455;SDS011;23316;50.718;7.328;2022-11-15T13:38:29;6.50;;;1.58;;
37455;SDS011;23316;50.718;7.328;2022-11-15T13:40:58;3.33;;;1.35;;
37455;SDS011;23316;50.718;7.328;2022-11-15T13:43:29;3.08;;;1.63;;
37455;SDS011;23316;50.718;7.328;2022-11-15T13:48:36;2.10;;;1.00;;
37455;SDS011;23316;50.718;7.328;2022-11-15T13:51:05;1.83;;;1.10;;
37455;SDS011;23316;50.718;7.328;2022-11-15T13:53:36;5.18;;;2.08;;
37455;SDS011;23316;50.718;7.328;2022-11-15T13:56:06;18.15;;;1.83;;
37455;SDS011;23316;50.718;7.328;2022-11-15T13:58:37;4.03;;;1.20;;
37455;SDS011;23316;50.718;7.328;2022-11-15T14:01:05;3.67;;;1.20;;
37455;SDS011;23316;50.718;7.328;2022-11-15T14:03:34;2.85;;;1.30;;
37455;SDS011;23316;50.718;7.328;2022-11-15T14:06:13;4.32;;;1.23;;
37455;SDS011;23316;50.718;7.328;2022-11-15T14:08:57;3.50;;;1.20;;
37455;SDS011;23316;50.718;7.328;2022-11-15T14:11:27;2.55;;;1.35;;
37455;SDS011;23316;50.718;7.328;2022-11-15T14:16:48;4.55;;;1.25;;
37455;SDS011;23316;50.718;7.328;2022-11-15T14:19:34;3.38;;;1.00;;
37455;SDS011;23316;50.718;7.328;2022-11-15T14:22:10;4.68;;;1.10;;
37455;SDS011;23316;50.718;7.328;2022-11-15T14:24:39;6.53;;;1.25;;
37455;SDS011;23316;50.718;7.328;2022-11-15T14:27:24;7.20;;;1.92;;
37455;SDS011;23316;50.718;7.328;2022-11-15T14:29:53;3.58;;;1.27;;
37455;SDS011;23316;50.718;7.328;2022-11-15T14:32:22;2.38;;;1.17;;
37455;SDS011;23316;50.718;7.328;2022-11-15T14:34:53;2.28;;;1.13;;
37455;SDS011;23316;50.718;7.328;2022-11-15T14:37:22;5.68;;;1.20;;
37455;SDS011;23316;50.718;7.328;2022-11-15T14:39:51;2.78;;;1.48;;
37455;SDS011;23316;50.718;7.328;2022-11-15T14:42:19;2.63;;;1.10;;
37455;SDS011;23316;50.718;7.328;2022-11-15T14:44:47;1.85;;;0.90;;
37455;SDS011;23316;50.718;7.328;2022-11-15T14:47:16;3.38;;;1.30;;
37455;SDS011;23316;50.718;7.328;2022-11-15T14:49:44;4.10;;;1.20;;
37455;SDS011;23316;50.718;7.328;2022-11-15T14:52:24;1.27;;;0.90;;
37455;SDS011;23316;50.718;7.328;2022-11-15T14:54:53;2.97;;;1.13;;
37455;SDS011;23316;50.718;7.328;2022-11-15T14:57:21;3.55;;;1.15;;
37455;SDS011;23316;50.718;7.328;2022-11-15T14:59:48;2.30;;;1.20;;
37455;SDS011;23316;50.718;7.328;2022-11-15T15:02:18;5.93;;;1.52;;
37455;SDS011;23316;50.718;7.328;2022-11-15T15:04:46;5.25;;;1.63;;
37455;SDS011;23316;50.718;7.328;2022-11-15T15:07:18;2.28;;;1.50;;
37455;SDS011;23316;50.718;7.328;2022-11-15T15:09:46;1.75;;;1.13;;
37455;SDS011;23316;50.718;7.328;2022-11-15T15:12:14;1.85;;;1.35;;
37455;SDS011;23316;50.718;7.328;2022-11-15T15:14:43;1.88;;;1.50;;
37455;SDS011;23316;50.718;7.328;2022-11-15T15:17:11;2.22;;;1.40;;
37455;SDS011;23316;50.718;7.328;2022-11-15T15:19:40;8.15;;;4.00;;
37455;SDS011;23316;50.718;7.328;2022-11-15T15:22:09;7.18;;;3.05;;
37455;SDS011;23316;50.718;7.328;2022-11-15T15:24:40;3.15;;;1.70;;
37455;SDS011;23316;50.718;7.328;2022-11-15T15:27:07;2.10;;;1.48;;
37455;SDS011;23316;50.718;7.328;2022-11-15T15:29:34;1.55;;;0.90;;
37455;SDS011;23316;50.718;7.328;2022-11-15T15:32:02;2.45;;;1.30;;
37455;SDS011;23316;50.718;7.328;2022-11-15T15:34:29;2.55;;;1.33;;
37455;SDS011;23316;50.718;7.328;2022-11-15T15:37:08;3.63;;;1.48;;
37455;SDS011;23316;50.718;7.328;2022-11-15T15:39:45;2.28;;;1.20;;
37455;SDS011;23316;50.718;7.328;2022-11-15T15:42:12;3.35;;;1.13;;
37455;SDS011;23316;50.718;7.328;2022-11-15T15:44:39;3.85;;;1.42;;
37455;SDS011;23316;50.718;7.328;2022-11-15T15:47:08;2.40;;;1.40;;
37455;SDS011;23316;50.718;7.328;2022-11-15T15:49:38;2.80;;;1.58;;